Time;durP1;ratioP1;P1;durP2;ratioP2;P2;SDS_P1;SDS_P2;PMS_P1;PMS_P2;Temp;Humidity;BMP_temperature;BMP_pressure;BME280_temperature;BME280_humidity;BME280_pressure;Samples;Min_cycle;Max_cycle;Signal;HPM_P1;HPM_P2
2022/05/27 00:00:53;;;;;;;60.60;3.30;;;;;;;;;;5078343;28;20497;-82
2022/05/27 00:03:21;;;;;;;58.90;2.80;;;;;;;;;;5078363;28;20497;-82
2022/05/27 00:05:50;;;;;;;59.30;3.27;;;;;;;;;;5078807;28;20850;-82
2022/05/27 00:08:18;;;;;;;58.93;2.80;;;;;;;;;;5078489;28;20471;-82
2022/05/27 00:10:46;;;;;;;59.10;3.37;;;;;;;;;;5078143;28;20455;-82
2022/05/27 00:13:13;;;;;;;59.10;3.00;;;;;;;;;;5078749;28;20508;-82
2022/05/27 00:15:43;;;;;;;58.73;2.80;;;;;;;;;;5077898;28;20539;-82
2022/05/27 00:18:10;;;;;;;59.47;3.53;;;;;;;;;;5077747;28;20446;-82
2022/05/27 00:20:38;;;;;;;58.83;2.80;;;;;;;;;;5077912;28;20532;-82
2022/05/27 00:23:06;;;;;;;59.03;3.00;;;;;;;;;;5077932;28;20447;-82
2022/05/27 00:25:33;;;;;;;58.87;2.90;;;;;;;;;;5078068;28;20440;-82
2022/05/27 00:28:01;;;;;;;59.17;3.17;;;;;;;;;;5078247;28;20435;-82
2022/05/27 00:30:29;;;;;;;58.80;2.77;;;;;;;;;;5078641;28;20460;-82
2022/05/27 00:32:58;;;;;;;61.30;4.60;;;;;;;;;;5078703;28;20493;-82
2022/05/27 00:35:25;;;;;;;58.87;2.80;;;;;;;;;;5078081;28;20493;-82
2022/05/27 00:37:52;;;;;;;58.87;2.90;;;;;;;;;;5077045;28;20443;-82
2022/05/27 00:40:21;;;;;;;58.90;2.90;;;;;;;;;;5077791;28;20487;-82
2022/05/27 00:42:48;;;;;;;58.90;3.20;;;;;;;;;;5077704;28;20454;-82
2022/05/27 00:45:17;;;;;;;59.20;3.40;;;;;;;;;;5078071;28;20494;-82
2022/05/27 00:47:45;;;;;;;58.97;2.90;;;;;;;;;;5077405;28;20460;-82
2022/05/27 00:50:17;;;;;;;58.83;2.90;;;;;;;;;;5077461;28;20654;-82
2022/05/27 00:52:45;;;;;;;58.73;2.90;;;;;;;;;;5078018;28;20950;-82
2022/05/27 00:55:14;;;;;;;58.77;3.00;;;;;;;;;;5078384;28;20431;-82
2022/05/27 00:57:46;;;;;;;59.27;3.40;;;;;;;;;;5077511;28;20441;-82
2022/05/27 01:00:16;;;;;;;58.93;3.00;;;;;;;;;;5077345;28;21095;-82
2022/05/27 01:02:43;;;;;;;58.93;2.83;;;;;;;;;;5077915;28;20459;-82
2022/05/27 01:05:11;;;;;;;59.20;3.20;;;;;;;;;;5078169;28;20889;-81
2022/05/27 01:07:40;;;;;;;58.80;2.83;;;;;;;;;;5077829;28;20435;-82
2022/05/27 01:10:10;;;;;;;58.97;2.90;;;;;;;;;;5077502;28;20467;-82
2022/05/27 01:12:44;;;;;;;61.40;3.93;;;;;;;;;;5077820;28;20431;-82
2022/05/27 01:15:20;;;;;;;59.23;3.57;;;;;;;;;;5078247;28;20460;-82
2022/05/27 01:17:53;;;;;;;58.83;3.00;;;;;;;;;;5077455;28;20423;-82
2022/05/27 01:20:22;;;;;;;59.30;3.30;;;;;;;;;;5077761;28;20554;-82
2022/05/27 01:23:14;;;;;;;58.80;2.90;;;;;;;;;;5076938;28;20520;-82
2022/05/27 01:25:55;;;;;;;59.00;3.00;;;;;;;;;;5077767;28;20440;-82
2022/05/27 01:28:38;;;;;;;58.97;3.03;;;;;;;;;;5077668;28;20471;-82
2022/05/27 01:31:11;;;;;;;58.93;2.80;;;;;;;;;;5077411;28;20920;-82
2022/05/27 01:33:40;;;;;;;59.13;2.87;;;;;;;;;;5077487;28;20493;-82
2022/05/27 01:36:11;;;;;;;58.97;2.97;;;;;;;;;;5078108;28;20859;-82
2022/05/27 01:38:43;;;;;;;59.50;4.17;;;;;;;;;;5076579;28;20462;-82
2022/05/27 01:41:12;;;;;;;58.93;3.30;;;;;;;;;;5077750;28;20536;-82
2022/05/27 01:43:41;;;;;;;58.87;2.80;;;;;;;;;;5077113;28;20444;-82
2022/05/27 01:46:13;;;;;;;59.07;2.73;;;;;;;;;;5077424;28;20435;-81
2022/05/27 01:48:41;;;;;;;58.87;2.90;;;;;;;;;;5079367;28;20542;-82
2022/05/27 01:51:11;;;;;;;58.97;2.80;;;;;;;;;;5081279;28;20443;-82
2022/05/27 01:53:41;;;;;;;58.93;2.73;;;;;;;;;;5081038;28;20440;-82
2022/05/27 01:56:11;;;;;;;59.17;3.30;;;;;;;;;;5079476;28;20520;-82
2022/05/27 01:58:41;;;;;;;58.87;2.80;;;;;;;;;;5080374;28;20485;-81
2022/05/27 02:01:12;;;;;;;59.10;3.07;;;;;;;;;;5080969;28;20478;-81
2022/05/27 02:03:44;;;;;;;58.97;2.90;;;;;;;;;;5080560;28;20501;-82
2022/05/27 02:06:12;;;;;;;58.97;2.93;;;;;;;;;;5087453;28;20497;-81
2022/05/27 02:08:42;;;;;;;59.10;2.90;;;;;;;;;;5089236;28;20443;-81
2022/05/27 02:11:10;;;;;;;59.07;3.40;;;;;;;;;;5089402;28;20903;-81
2022/05/27 02:13:40;;;;;;;59.07;3.10;;;;;;;;;;5084348;28;20436;-81
2022/05/27 02:16:09;;;;;;;60.10;3.70;;;;;;;;;;5076468;28;20443;-81
2022/05/27 02:18:40;;;;;;;58.97;3.00;;;;;;;;;;5075828;28;20861;-81
2022/05/27 02:21:11;;;;;;;59.27;3.03;;;;;;;;;;5076272;28;20529;-81
2022/05/27 02:23:41;;;;;;;58.97;2.93;;;;;;;;;;5076699;28;20447;-81
2022/05/27 02:26:10;;;;;;;59.23;3.20;;;;;;;;;;5076697;28;20493;-81
2022/05/27 02:28:40;;;;;;;58.83;2.83;;;;;;;;;;5076470;28;20436;-81
2022/05/27 02:31:09;;;;;;;59.27;3.37;;;;;;;;;;5076778;28;20432;-81
2022/05/27 02:36:29;;;;;;;59.10;2.87;;;;;;;;;;5076944;28;20466;-81
2022/05/27 02:38:56;;;;;;;58.90;3.10;;;;;;;;;;5076129;28;20460;-81
2022/05/27 02:41:28;;;;;;;58.93;2.80;;;;;;;;;;5077582;28;20534;-81
2022/05/27 02:44:01;;;;;;;58.97;2.67;;;;;;;;;;5077889;28;20482;-81
2022/05/27 02:46:34;;;;;;;59.07;3.23;;;;;;;;;;5078509;28;20517;-82
2022/05/27 02:49:07;;;;;;;58.73;2.77;;;;;;;;;;5078552;28;20463;-81
2022/05/27 02:51:39;;;;;;;59.07;3.00;;;;;;;;;;5077983;28;20447;-81
2022/05/27 02:54:11;;;;;;;58.87;2.77;;;;;;;;;;5078687;28;20466;-82
2022/05/27 02:56:41;;;;;;;58.87;3.00;;;;;;;;;;5078026;28;20489;-81
2022/05/27 02:59:10;;;;;;;60.37;3.57;;;;;;;;;;5077357;28;20456;-81
2022/05/27 03:01:37;;;;;;;58.87;2.90;;;;;;;;;;5078195;28;20496;-82
2022/05/27 03:04:05;;;;;;;59.20;3.60;;;;;;;;;;5078421;28;20448;-82
2022/05/27 03:06:40;;;;;;;58.87;3.00;;;;;;;;;;5079953;28;20451;-82
2022/05/27 03:09:09;;;;;;;59.07;2.80;;;;;;;;;;5078964;28;20529;-82
2022/05/27 03:11:46;;;;;;;58.97;2.87;;;;;;;;;;5078119;28;20466;-82
2022/05/27 03:14:30;;;;;;;58.97;2.80;;;;;;;;;;5079336;28;20447;-82
2022/05/27 03:17:03;;;;;;;58.87;2.80;;;;;;;;;;5079205;28;20435;-81
2022/05/27 03:19:37;;;;;;;59.07;2.90;;;;;;;;;;5078289;28;20452;-81
2022/05/27 03:22:13;;;;;;;58.77;2.80;;;;;;;;;;5078550;28;20479;-82
2022/05/27 03:24:46;;;;;;;59.27;3.20;;;;;;;;;;5078409;28;20446;-81
2022/05/27 03:27:18;;;;;;;58.63;2.80;;;;;;;;;;5078375;28;20431;-82
2022/05/27 03:29:49;;;;;;;60.53;3.10;;;;;;;;;;5078270;28;20899;-82
2022/05/27 03:32:20;;;;;;;58.63;3.10;;;;;;;;;;5078739;28;20439;-81
2022/05/27 03:34:51;;;;;;;58.73;2.80;;;;;;;;;;5079126;28;20474;-81
2022/05/27 03:37:25;;;;;;;58.57;2.70;;;;;;;;;;5069484;28;20444;-82
2022/05/27 03:39:54;;;;;;;58.87;2.80;;;;;;;;;;5078417;28;20472;-81
2022/05/27 03:42:24;;;;;;;59.20;3.37;;;;;;;;;;5078380;28;20533;-82
2022/05/27 03:44:52;;;;;;;58.77;2.80;;;;;;;;;;5077706;28;20443;-81
2022/05/27 03:47:19;;;;;;;58.73;2.70;;;;;;;;;;5077950;28;20440;-82
2022/05/27 03:49:47;;;;;;;58.77;2.90;;;;;;;;;;5075954;28;20463;-81
2022/05/27 03:52:16;;;;;;;58.57;2.90;;;;;;;;;;5074612;28;20478;-82
2022/05/27 03:54:45;;;;;;;58.57;2.57;;;;;;;;;;5077035;28;20437;-81
2022/05/27 03:57:12;;;;;;;58.77;2.83;;;;;;;;;;5075185;28;20440;-81
2022/05/27 03:59:40;;;;;;;58.87;2.87;;;;;;;;;;5073812;28;20546;-81
2022/05/27 04:02:07;;;;;;;58.77;2.83;;;;;;;;;;5077317;28;20530;-81
2022/05/27 04:04:34;;;;;;;58.83;2.87;;;;;;;;;;5079452;28;20454;-81
2022/05/27 04:07:01;;;;;;;58.87;3.10;;;;;;;;;;5080070;28;20440;-82
2022/05/27 04:09:29;;;;;;;58.83;3.07;;;;;;;;;;5078096;28;20460;-82
2022/05/27 04:11:58;;;;;;;59.20;3.10;;;;;;;;;;5077650;28;20435;-82
2022/05/27 04:14:25;;;;;;;58.80;2.80;;;;;;;;;;5077997;28;20474;-82
2022/05/27 04:17:27;;;;;;;58.97;3.00;;;;;;;;;;5077761;28;20435;-82
2022/05/27 04:19:40;;;;;;;58.97;3.20;;;;;;;;;;5077735;28;20491;-82
2022/05/27 04:22:07;;;;;;;58.87;2.90;;;;;;;;;;5077255;28;20563;-82
2022/05/27 04:24:35;;;;;;;58.77;3.10;;;;;;;;;;5077822;28;20483;-82
2022/05/27 04:27:09;;;;;;;59.00;3.50;;;;;;;;;;5078211;28;20455;-82
2022/05/27 04:29:39;;;;;;;58.87;3.37;;;;;;;;;;5077756;28;20679;-82
2022/05/27 04:32:07;;;;;;;58.57;3.00;;;;;;;;;;5078144;28;20449;-82
2022/05/27 04:34:34;;;;;;;58.80;2.90;;;;;;;;;;5078514;28;20436;-81
2022/05/27 04:37:01;;;;;;;59.50;3.47;;;;;;;;;;5077343;28;20964;-81
2022/05/27 04:39:30;;;;;;;58.90;2.90;;;;;;;;;;5078068;28;20468;-82
2022/05/27 04:41:57;;;;;;;58.97;3.00;;;;;;;;;;5077777;28;20492;-82
2022/05/27 04:44:26;;;;;;;58.97;3.27;;;;;;;;;;5077346;28;20452;-82
2022/05/27 04:46:53;;;;;;;59.10;3.50;;;;;;;;;;5077681;28;20530;-83
2022/05/27 04:52:06;;;;;;;58.60;2.87;;;;;;;;;;5077770;28;20419;-82
2022/05/27 04:54:33;;;;;;;59.67;3.30;;;;;;;;;;5077729;28;20492;-81
2022/05/27 04:57:01;;;;;;;58.80;3.10;;;;;;;;;;5077228;28;20487;-82
2022/05/27 04:59:29;;;;;;;58.57;2.87;;;;;;;;;;5077721;28;20547;-82
2022/05/27 05:01:57;;;;;;;58.40;2.70;;;;;;;;;;5077772;28;20484;-82
2022/05/27 05:04:24;;;;;;;58.17;2.80;;;;;;;;;;5077404;28;20498;-81
2022/05/27 05:06:51;;;;;;;58.43;2.70;;;;;;;;;;5078513;28;20437;-81
2022/05/27 05:09:19;;;;;;;58.47;2.90;;;;;;;;;;5077634;28;20460;-81
2022/05/27 05:11:46;;;;;;;58.87;3.00;;;;;;;;;;5078433;28;20456;-81
2022/05/27 05:14:14;;;;;;;58.57;2.80;;;;;;;;;;5078216;28;20943;-82
2022/05/27 05:16:42;;;;;;;61.47;4.27;;;;;;;;;;5077968;28;20458;-82
2022/05/27 05:19:09;;;;;;;58.63;3.27;;;;;;;;;;5077405;28;20522;-83
2022/05/27 05:21:37;;;;;;;58.43;2.70;;;;;;;;;;5078844;28;20477;-83
2022/05/27 05:24:04;;;;;;;58.27;2.80;;;;;;;;;;5081411;28;20485;-81
2022/05/27 05:26:32;;;;;;;58.90;3.00;;;;;;;;;;5082512;28;20439;-81
2022/05/27 05:28:59;;;;;;;58.97;2.97;;;;;;;;;;5081369;28;20461;-82
2022/05/27 05:31:26;;;;;;;58.07;2.80;;;;;;;;;;5081723;28;20506;-81
2022/05/27 05:33:59;;;;;;;58.33;2.70;;;;;;;;;;5082093;28;20474;-81
2022/05/27 05:36:27;;;;;;;58.77;3.10;;;;;;;;;;5081562;28;20456;-81
2022/05/27 05:38:54;;;;;;;58.63;2.80;;;;;;;;;;5081092;28;20446;-81
2022/05/27 05:41:27;;;;;;;59.10;3.20;;;;;;;;;;5081537;28;20491;-81
2022/05/27 05:43:55;;;;;;;59.03;2.80;;;;;;;;;;5081391;28;20501;-81
2022/05/27 05:46:22;;;;;;;58.07;2.60;;;;;;;;;;5081729;28;20516;-82
2022/05/27 05:48:50;;;;;;;58.93;2.83;;;;;;;;;;5082209;28;20438;-81
2022/05/27 05:51:18;;;;;;;59.50;3.00;;;;;;;;;;5080990;28;20445;-82
2022/05/27 05:53:46;;;;;;;59.40;3.33;;;;;;;;;;5081887;28;20448;-82
2022/05/27 05:56:13;;;;;;;59.67;3.33;;;;;;;;;;5081676;28;20465;-82
2022/05/27 05:58:41;;;;;;;58.70;2.83;;;;;;;;;;5081539;28;20488;-82
2022/05/27 06:01:08;;;;;;;58.67;2.77;;;;;;;;;;5081046;28;20489;-81
2022/05/27 06:03:36;;;;;;;60.80;4.10;;;;;;;;;;5081313;28;20438;-81
2022/05/27 06:06:03;;;;;;;59.20;3.40;;;;;;;;;;5081369;28;20433;-81
2022/05/27 06:08:31;;;;;;;58.77;3.00;;;;;;;;;;5080842;28;20457;-81
2022/05/27 06:10:59;;;;;;;59.27;2.93;;;;;;;;;;5081242;28;20483;-80
2022/05/27 06:13:28;;;;;;;58.93;3.17;;;;;;;;;;5082354;28;20437;-80
2022/05/27 06:15:55;;;;;;;58.90;2.77;;;;;;;;;;5081835;28;20496;-80
2022/05/27 06:18:22;;;;;;;58.70;2.57;;;;;;;;;;5081297;28;20485;-80
2022/05/27 06:20:50;;;;;;;58.43;2.70;;;;;;;;;;5081508;28;20470;-80
2022/05/27 06:23:17;;;;;;;58.60;2.80;;;;;;;;;;5081803;28;20485;-80
2022/05/27 06:25:46;;;;;;;58.67;3.00;;;;;;;;;;5081348;28;20474;-80
2022/05/27 06:36:28;;;;;;;58.90;2.70;;;;;;;;;;5080659;28;20429;-80
2022/05/27 06:38:55;;;;;;;60.67;3.17;;;;;;;;;;5081375;28;20475;-80
2022/05/27 06:41:23;;;;;;;58.80;2.97;;;;;;;;;;5080217;28;20851;-80
2022/05/27 06:43:51;;;;;;;58.73;3.40;;;;;;;;;;5080358;28;20815;-81
2022/05/27 06:46:18;;;;;;;58.97;2.97;;;;;;;;;;5080008;28;20485;-80
2022/05/27 06:48:45;;;;;;;61.00;2.80;;;;;;;;;;5080833;28;20487;-81
2022/05/27 06:51:13;;;;;;;58.57;2.93;;;;;;;;;;5080703;28;20500;-80
2022/05/27 06:53:40;;;;;;;59.30;3.80;;;;;;;;;;5080771;28;20503;-82
2022/05/27 06:56:08;;;;;;;59.07;2.90;;;;;;;;;;5080560;28;20477;-80
2022/05/27 06:58:37;;;;;;;59.23;3.43;;;;;;;;;;5079093;28;20504;-82
2022/05/27 07:01:04;;;;;;;58.87;2.80;;;;;;;;;;5080047;28;20528;-80
2022/05/27 07:03:32;;;;;;;59.07;3.10;;;;;;;;;;5080523;28;20505;-82
2022/05/27 07:05:59;;;;;;;60.47;3.77;;;;;;;;;;5088376;28;20441;-82
2022/05/27 07:08:27;;;;;;;59.10;3.10;;;;;;;;;;5096960;28;20531;-79
2022/05/27 07:10:54;;;;;;;58.87;2.90;;;;;;;;;;5092478;28;20486;-82
2022/05/27 07:13:21;;;;;;;58.73;2.97;;;;;;;;;;5090822;28;20436;-80
2022/05/27 07:15:50;;;;;;;58.77;2.67;;;;;;;;;;5078710;28;20779;-83
2022/05/27 07:18:17;;;;;;;58.57;2.60;;;;;;;;;;5073567;28;20528;-79
2022/05/27 07:20:45;;;;;;;59.07;3.20;;;;;;;;;;5074166;28;20449;-80
2022/05/27 07:23:12;;;;;;;58.70;3.03;;;;;;;;;;5074005;28;20557;-80
2022/05/27 07:25:40;;;;;;;59.57;3.10;;;;;;;;;;5074262;28;20532;-80
2022/05/27 07:28:08;;;;;;;59.10;3.10;;;;;;;;;;5074679;28;20441;-80
2022/05/27 07:30:36;;;;;;;58.40;2.67;;;;;;;;;;5074715;28;20898;-80
2022/05/27 07:33:05;;;;;;;59.10;3.33;;;;;;;;;;5074991;28;20445;-82
2022/05/27 07:35:32;;;;;;;58.60;2.53;;;;;;;;;;5074885;28;20436;-80
2022/05/27 07:38:00;;;;;;;59.20;2.70;;;;;;;;;;5074309;28;20470;-80
2022/05/27 07:40:27;;;;;;;58.77;2.83;;;;;;;;;;5075000;28;20465;-80
2022/05/27 07:42:54;;;;;;;58.47;2.90;;;;;;;;;;5075035;28;20544;-80
2022/05/27 07:45:26;;;;;;;58.57;2.53;;;;;;;;;;5073453;28;20460;-82
2022/05/27 07:47:53;;;;;;;58.93;3.10;;;;;;;;;;5074940;28;20446;-80
2022/05/27 07:50:22;;;;;;;58.53;3.20;;;;;;;;;;5075358;28;20491;-79
2022/05/27 07:52:50;;;;;;;58.70;2.90;;;;;;;;;;5076135;28;20506;-79
2022/05/27 07:55:17;;;;;;;58.50;2.63;;;;;;;;;;5075732;28;20526;-79
2022/05/27 07:57:45;;;;;;;58.67;2.77;;;;;;;;;;5075498;28;20442;-80
2022/05/27 08:00:13;;;;;;;61.20;3.33;;;;;;;;;;5075832;28;20524;-81
2022/05/27 08:02:41;;;;;;;66.30;5.27;;;;;;;;;;5077134;28;20520;-81
2022/05/27 08:05:09;;;;;;;58.70;3.10;;;;;;;;;;5075741;28;20454;-79
2022/05/27 08:07:38;;;;;;;58.47;2.57;;;;;;;;;;5077291;28;20452;-80
2022/05/27 08:10:06;;;;;;;58.87;3.33;;;;;;;;;;5077305;28;20463;-82
2022/05/27 08:12:34;;;;;;;58.47;2.60;;;;;;;;;;5077405;28;20448;-80
2022/05/27 08:15:01;;;;;;;58.77;3.33;;;;;;;;;;5077561;28;20462;-80
2022/05/27 08:17:28;;;;;;;58.87;2.90;;;;;;;;;;5077106;28;20446;-80
2022/05/27 08:19:55;;;;;;;59.37;3.57;;;;;;;;;;5078039;28;20455;-80
2022/05/27 08:22:23;;;;;;;58.47;2.83;;;;;;;;;;5077315;28;20474;-80
2022/05/27 08:24:51;;;;;;;72.73;3.30;;;;;;;;;;5076033;28;20462;-80
2022/05/27 08:27:19;;;;;;;58.40;3.07;;;;;;;;;;5077502;28;20481;-80
2022/05/27 08:29:46;;;;;;;58.60;2.80;;;;;;;;;;5077468;28;20553;-80
2022/05/27 08:32:13;;;;;;;58.47;2.47;;;;;;;;;;5077861;28;20455;-81
2022/05/27 08:40:15;;;;;;;60.90;3.87;;;;;;;;;;5078544;28;20445;-84
2022/05/27 08:42:46;;;;;;;58.83;2.90;;;;;;;;;;5083027;28;20547;-80
2022/05/27 08:45:15;;;;;;;61.00;3.33;;;;;;;;;;5082122;28;20496;-82
2022/05/27 08:47:45;;;;;;;58.67;2.50;;;;;;;;;;5079832;28;20462;-80
2022/05/27 08:50:14;;;;;;;58.37;2.57;;;;;;;;;;5073072;28;20545;-80
2022/05/27 08:52:43;;;;;;;58.57;2.70;;;;;;;;;;5072120;28;20453;-80
2022/05/27 09:00:44;;;;;;;58.43;3.20;;;;;;;;;;5079486;28;20465;-80
2022/05/27 09:03:11;;;;;;;58.67;3.00;;;;;;;;;;5076767;28;20480;-81
2022/05/27 09:05:42;;;;;;;58.60;2.70;;;;;;;;;;5076663;28;20464;-81
2022/05/27 09:08:12;;;;;;;58.90;2.90;;;;;;;;;;5077027;28;20552;-83
2022/05/27 09:10:46;;;;;;;58.87;3.30;;;;;;;;;;5077030;28;20457;-81
2022/05/27 09:13:18;;;;;;;58.57;2.93;;;;;;;;;;5077396;28;20507;-83
2022/05/27 09:15:51;;;;;;;58.60;2.93;;;;;;;;;;5077145;28;20946;-81
2022/05/27 09:18:26;;;;;;;58.27;2.50;;;;;;;;;;5068794;28;20449;-82
2022/05/27 09:20:59;;;;;;;58.43;2.60;;;;;;;;;;5077355;28;20500;-80
2022/05/27 09:23:39;;;;;;;58.67;2.93;;;;;;;;;;5077070;28;20568;-81
2022/05/27 09:26:11;;;;;;;59.67;3.53;;;;;;;;;;5077201;28;20454;-82
2022/05/27 09:28:45;;;;;;;58.57;2.60;;;;;;;;;;5077141;28;20833;-83
2022/05/27 09:31:15;;;;;;;62.73;3.00;;;;;;;;;;5076960;28;20452;-82
2022/05/27 09:33:43;;;;;;;63.13;3.70;;;;;;;;;;5078335;28;20449;-82
2022/05/27 09:36:11;;;;;;;58.17;2.90;;;;;;;;;;5078768;28;20507;-83
2022/05/27 09:38:41;;;;;;;58.43;2.67;;;;;;;;;;5077870;28;20446;-83
2022/05/27 09:41:14;;;;;;;58.70;3.00;;;;;;;;;;5078821;28;20432;-82
2022/05/27 09:43:44;;;;;;;58.83;2.87;;;;;;;;;;5079256;28;20472;-83
2022/05/27 09:46:13;;;;;;;58.77;2.90;;;;;;;;;;5076748;28;20449;-83
2022/05/27 09:48:40;;;;;;;58.63;2.67;;;;;;;;;;5077705;28;20980;-82
2022/05/27 09:51:10;;;;;;;58.77;3.00;;;;;;;;;;5077850;28;20460;-83
2022/05/27 09:53:40;;;;;;;58.17;2.90;;;;;;;;;;5078264;28;20441;-83
2022/05/27 09:56:08;;;;;;;58.67;2.67;;;;;;;;;;5078532;28;20509;-83
2022/05/27 09:58:40;;;;;;;58.77;2.80;;;;;;;;;;5078073;28;20456;-81
2022/05/27 10:01:21;;;;;;;58.80;3.00;;;;;;;;;;5078554;28;20527;-81
2022/05/27 10:03:59;;;;;;;58.33;2.90;;;;;;;;;;5077353;28;20521;-84
2022/05/27 10:06:27;;;;;;;59.30;3.20;;;;;;;;;;5078530;28;20457;-83
2022/05/27 10:08:56;;;;;;;59.13;3.00;;;;;;;;;;5077840;28;20436;-82
2022/05/27 10:11:24;;;;;;;62.63;3.20;;;;;;;;;;5079148;28;20457;-83
2022/05/27 10:14:10;;;;;;;58.53;2.33;;;;;;;;;;5078724;28;20438;-83
2022/05/27 10:16:38;;;;;;;58.03;2.57;;;;;;;;;;5079352;28;20442;-82
2022/05/27 10:19:08;;;;;;;58.27;2.53;;;;;;;;;;5078164;28;20952;-83
2022/05/27 10:21:49;;;;;;;58.40;2.93;;;;;;;;;;5076968;28;20446;-83
2022/05/27 10:24:18;;;;;;;58.80;2.90;;;;;;;;;;5076827;28;20532;-84
2022/05/27 10:26:45;;;;;;;58.93;2.97;;;;;;;;;;5077789;28;20436;-84
2022/05/27 10:29:15;;;;;;;58.03;2.30;;;;;;;;;;5076611;28;20479;-84
2022/05/27 10:31:50;;;;;;;59.37;2.87;;;;;;;;;;5077484;28;20919;-81
2022/05/27 10:34:38;;;;;;;59.03;2.67;;;;;;;;;;5078415;28;20821;-81
2022/05/27 10:37:07;;;;;;;58.33;2.70;;;;;;;;;;5078763;28;20455;-80
2022/05/27 10:39:38;;;;;;;58.57;2.60;;;;;;;;;;5078349;28;20452;-82
2022/05/27 10:42:10;;;;;;;58.50;2.70;;;;;;;;;;5078355;28;20436;-83
2022/05/27 10:44:45;;;;;;;58.53;2.60;;;;;;;;;;5078123;28;20486;-82
2022/05/27 10:47:18;;;;;;;59.17;3.47;;;;;;;;;;5077928;28;20447;-81
2022/05/27 10:49:51;;;;;;;58.20;2.40;;;;;;;;;;5078486;28;20478;-81
2022/05/27 10:52:24;;;;;;;57.87;2.60;;;;;;;;;;5078095;28;20793;-82
2022/05/27 10:54:58;;;;;;;58.60;2.70;;;;;;;;;;5078660;28;20868;-82
2022/05/27 11:03:31;;;;;;;58.83;2.70;;;;;;;;;;5042329;28;20477;-82
2022/05/27 11:06:08;;;;;;;57.90;2.33;;;;;;;;;;5076880;28;20443;-82
2022/05/27 11:08:42;;;;;;;57.93;2.30;;;;;;;;;;5079548;28;20835;-81
2022/05/27 11:11:14;;;;;;;58.90;3.13;;;;;;;;;;5080442;28;20440;-79
2022/05/27 11:16:49;;;;;;;58.30;2.37;;;;;;;;;;5080052;28;20419;-79
2022/05/27 11:19:24;;;;;;;58.07;2.40;;;;;;;;;;5078702;28;20469;-84
2022/05/27 11:21:59;;;;;;;58.70;2.70;;;;;;;;;;5079757;28;20453;-80
2022/05/27 11:24:45;;;;;;;57.97;2.30;;;;;;;;;;5079446;28;20476;-81
2022/05/27 11:27:19;;;;;;;58.03;2.30;;;;;;;;;;5079713;28;20453;-80
2022/05/27 11:30:05;;;;;;;61.60;2.87;;;;;;;;;;5079214;28;20458;-81
2022/05/27 11:32:39;;;;;;;58.37;3.03;;;;;;;;;;5079624;28;20468;-80
2022/05/27 11:35:10;;;;;;;58.33;2.47;;;;;;;;;;5080614;28;20439;-81
2022/05/27 11:37:55;;;;;;;58.33;2.60;;;;;;;;;;5079321;28;20475;-81
2022/05/27 11:40:27;;;;;;;58.30;2.70;;;;;;;;;;5079676;28;20457;-83
2022/05/27 11:43:18;;;;;;;57.73;2.30;;;;;;;;;;5078284;28;20434;-82
2022/05/27 11:45:51;;;;;;;57.97;2.50;;;;;;;;;;5079114;28;20462;-81
2022/05/27 11:48:23;;;;;;;58.70;2.67;;;;;;;;;;5078817;28;20437;-81
2022/05/27 11:51:08;;;;;;;57.80;2.70;;;;;;;;;;5078209;28;20459;-81
2022/05/27 11:53:50;;;;;;;58.37;2.50;;;;;;;;;;5078955;28;20453;-81
2022/05/27 11:56:18;;;;;;;58.20;2.40;;;;;;;;;;5081328;28;20517;-81
2022/05/27 11:58:50;;;;;;;57.93;2.30;;;;;;;;;;5091304;28;20456;-84
2022/05/27 12:01:32;;;;;;;58.17;2.10;;;;;;;;;;5088928;28;20434;-82
2022/05/27 12:04:05;;;;;;;58.90;2.97;;;;;;;;;;5088367;28;20480;-83
2022/05/27 12:06:34;;;;;;;57.87;2.30;;;;;;;;;;5082398;28;20457;-82
2022/05/27 12:09:03;;;;;;;58.90;2.33;;;;;;;;;;5073408;28;20521;-80
2022/05/27 12:11:36;;;;;;;58.37;2.40;;;;;;;;;;5074753;28;21008;-80
2022/05/27 12:14:05;;;;;;;59.33;2.50;;;;;;;;;;5074455;28;20424;-80
2022/05/27 12:16:35;;;;;;;58.20;2.10;;;;;;;;;;5074916;28;20454;-80
2022/05/27 12:19:06;;;;;;;58.77;2.70;;;;;;;;;;5074498;28;20509;-82
2022/05/27 12:21:37;;;;;;;57.93;2.50;;;;;;;;;;5074986;28;20473;-81
2022/05/27 12:24:07;;;;;;;57.37;2.20;;;;;;;;;;5074822;28;20456;-81
2022/05/27 12:26:37;;;;;;;58.43;2.50;;;;;;;;;;5074406;28;20451;-81
2022/05/27 12:29:06;;;;;;;58.70;2.60;;;;;;;;;;5073990;28;20466;-80
2022/05/27 12:31:33;;;;;;;58.10;2.60;;;;;;;;;;5074158;28;20947;-82
2022/05/27 12:34:32;;;;;;;59.00;2.60;;;;;;;;;;5075405;28;20454;-81
2022/05/27 12:37:00;;;;;;;59.17;2.67;;;;;;;;;;5074940;28;20463;-80
2022/05/27 12:39:29;;;;;;;58.50;2.57;;;;;;;;;;5074843;28;20540;-79
2022/05/27 12:42:08;;;;;;;58.20;2.40;;;;;;;;;;5074403;28;20432;-82
2022/05/27 12:44:35;;;;;;;58.80;2.97;;;;;;;;;;5075120;28;20471;-81
2022/05/27 12:47:04;;;;;;;58.07;2.40;;;;;;;;;;5075912;28;20500;-80
2022/05/27 12:49:37;;;;;;;58.20;2.40;;;;;;;;;;5074979;28;20463;-83
2022/05/27 12:52:06;;;;;;;58.10;2.37;;;;;;;;;;5075110;28;20483;-80
2022/05/27 12:54:51;;;;;;;58.00;2.50;;;;;;;;;;5074591;28;20431;-79
2022/05/27 13:00:59;;;;;;;58.60;2.60;;;;;;;;;;5076825;28;20442;-82
2022/05/27 13:03:45;;;;;;;58.10;2.47;;;;;;;;;;4994989;28;20500;-82
2022/05/27 13:06:17;;;;;;;58.00;2.30;;;;;;;;;;4996337;28;20534;-80
2022/05/27 13:08:47;;;;;;;58.27;2.50;;;;;;;;;;4996056;28;20443;-82
2022/05/27 13:11:18;;;;;;;57.77;2.40;;;;;;;;;;4996659;28;20527;-80
2022/05/27 13:13:45;;;;;;;61.30;2.70;;;;;;;;;;5001658;28;20449;-80
2022/05/27 13:16:24;;;;;;;58.07;2.33;;;;;;;;;;5003398;28;20443;-79
2022/05/27 13:18:53;;;;;;;57.90;2.20;;;;;;;;;;5002815;28;20490;-81
2022/05/27 13:21:23;;;;;;;58.40;2.30;;;;;;;;;;4996387;28;20447;-83
2022/05/27 13:23:52;;;;;;;58.47;2.57;;;;;;;;;;4997220;28;20487;-80
2022/05/27 13:26:27;;;;;;;58.50;2.40;;;;;;;;;;4997110;28;20475;-82
2022/05/27 13:28:56;;;;;;;59.97;2.60;;;;;;;;;;4997408;28;20999;-82
2022/05/27 13:31:25;;;;;;;61.10;3.37;;;;;;;;;;4996401;28;21027;-82
2022/05/27 13:33:55;;;;;;;58.50;2.87;;;;;;;;;;4995262;28;20548;-82
2022/05/27 13:36:25;;;;;;;58.00;2.17;;;;;;;;;;5003471;28;20439;-82
2022/05/27 13:38:55;;;;;;;58.73;2.77;;;;;;;;;;5075964;28;20510;-83
2022/05/27 13:41:22;;;;;;;59.63;3.43;;;;;;;;;;5074711;28;20432;-83
2022/05/27 13:43:52;;;;;;;58.70;2.73;;;;;;;;;;5075109;28;20491;-82
2022/05/27 13:46:22;;;;;;;59.27;3.07;;;;;;;;;;5076921;28;20697;-81
2022/05/27 13:48:50;;;;;;;58.20;2.30;;;;;;;;;;5082769;28;20442;-80
2022/05/27 13:51:19;;;;;;;58.07;2.30;;;;;;;;;;5075855;28;20498;-83
2022/05/27 13:53:49;;;;;;;58.03;2.50;;;;;;;;;;5074695;28;20493;-86
2022/05/27 13:56:18;;;;;;;58.30;2.20;;;;;;;;;;5075190;28;20806;-85
2022/05/27 13:58:50;;;;;;;57.57;2.33;;;;;;;;;;5075114;28;20510;-83
2022/05/27 14:01:19;;;;;;;57.90;2.37;;;;;;;;;;5074914;28;20454;-86
2022/05/27 14:03:49;;;;;;;57.63;2.40;;;;;;;;;;5074686;28;20532;-85
2022/05/27 14:06:25;;;;;;;58.07;2.30;;;;;;;;;;5075360;28;20439;-86
2022/05/27 14:08:54;;;;;;;57.83;2.40;;;;;;;;;;5075041;28;20415;-87
2022/05/27 14:11:28;;;;;;;58.97;2.73;;;;;;;;;;5074984;28;20454;-87
2022/05/27 14:13:56;;;;;;;58.20;2.40;;;;;;;;;;5074988;28;20424;-84
2022/05/27 14:16:27;;;;;;;58.17;2.53;;;;;;;;;;5075703;28;20447;-81
2022/05/27 14:18:56;;;;;;;57.90;2.60;;;;;;;;;;5074336;28;20443;-83
2022/05/27 14:24:17;;;;;;;58.20;2.47;;;;;;;;;;5074689;28;20454;-84
2022/05/27 14:26:45;;;;;;;58.20;2.33;;;;;;;;;;5075062;28;20470;-83
2022/05/27 14:29:14;;;;;;;58.37;2.60;;;;;;;;;;5074666;28;20455;-83
2022/05/27 14:31:43;;;;;;;59.00;2.80;;;;;;;;;;5074951;28;20451;-82
2022/05/27 14:34:12;;;;;;;58.10;2.77;;;;;;;;;;5075548;28;20437;-83
2022/05/27 14:36:41;;;;;;;62.80;3.00;;;;;;;;;;5075387;28;20439;-81
2022/05/27 14:39:09;;;;;;;58.23;2.90;;;;;;;;;;5076249;28;20518;-79
2022/05/27 14:41:40;;;;;;;57.67;2.37;;;;;;;;;;5076460;28;20867;-81
2022/05/27 14:44:19;;;;;;;58.10;2.27;;;;;;;;;;5076243;28;20463;-80
2022/05/27 14:47:01;;;;;;;57.80;2.37;;;;;;;;;;5075637;28;20810;-80
2022/05/27 14:49:30;;;;;;;58.27;2.40;;;;;;;;;;5075785;28;20882;-79
2022/05/27 14:51:57;;;;;;;58.63;2.60;;;;;;;;;;5075572;28;20490;-77
2022/05/27 14:54:26;;;;;;;58.17;2.40;;;;;;;;;;5074528;28;20442;-80
2022/05/27 14:57:08;;;;;;;58.27;2.30;;;;;;;;;;5076770;28;20436;-79
2022/05/27 14:59:37;;;;;;;59.57;2.70;;;;;;;;;;5075930;28;20467;-79
2022/05/27 15:02:04;;;;;;;57.77;2.17;;;;;;;;;;5075195;28;20924;-81
2022/05/27 15:04:32;;;;;;;58.30;2.07;;;;;;;;;;5076961;28;20534;-78
2022/05/27 15:07:00;;;;;;;57.57;2.27;;;;;;;;;;5077314;28;20455;-80
2022/05/27 15:09:32;;;;;;;57.93;2.30;;;;;;;;;;5077182;28;20506;-80
2022/05/27 15:12:14;;;;;;;58.60;2.47;;;;;;;;;;5077219;28;20439;-79
2022/05/27 15:14:44;;;;;;;58.27;2.27;;;;;;;;;;5077767;28;20767;-78
2022/05/27 15:17:22;;;;;;;57.87;2.17;;;;;;;;;;5077127;28;20543;-78
2022/05/27 15:19:51;;;;;;;58.07;2.10;;;;;;;;;;5077399;28;20463;-79
2022/05/27 15:22:19;;;;;;;58.70;2.60;;;;;;;;;;5077244;28;20433;-80
2022/05/27 15:24:49;;;;;;;58.13;2.50;;;;;;;;;;5076984;28;20477;-79
2022/05/27 15:33:07;;;;;;;57.93;2.30;;;;;;;;;;5077409;28;20514;-80
2022/05/27 15:35:36;;;;;;;57.87;2.10;;;;;;;;;;5077190;28;20458;-80